createdAt,value
2023-04-28T00:00:31.852Z,-88.00
2023-04-28T00:01:32.390Z,-87.00
2023-04-28T00:02:34.076Z,-88.00
2023-04-28T00:03:33.716Z,-90.00
2023-04-28T00:03:42.471Z,-87.00
2023-04-28T00:04:42.892Z,-88.00
2023-04-28T00:05:43.080Z,-87.00
2023-04-28T00:06:43.653Z,-87.00
2023-04-28T00:07:44.384Z,-88.00
2023-04-28T00:08:44.973Z,-87.00
2023-04-28T00:09:45.534Z,-88.00
2023-04-28T00:10:46.249Z,-88.00
2023-04-28T00:11:46.839Z,-87.00
2023-04-28T00:12:47.383Z,-87.00
2023-04-28T00:13:48.924Z,-87.00
2023-04-28T00:14:48.883Z,-86.00
2023-04-28T00:14:57.544Z,-88.00
2023-04-28T00:15:58.308Z,-86.00
2023-04-28T00:16:59.045Z,-87.00
2023-04-28T00:18:00.050Z,-88.00
2023-04-28T00:19:00.573Z,-88.00
2023-04-28T00:20:01.049Z,-89.00
2023-04-28T00:21:01.597Z,-88.00
2023-04-28T00:22:02.256Z,-86.00
2023-04-28T00:23:02.775Z,-87.00
2023-04-28T00:24:03.358Z,-90.00
2023-04-28T00:25:04.017Z,-87.00
2023-04-28T00:26:04.528Z,-86.00
2023-04-28T00:26:13.172Z,-87.00
2023-04-28T00:27:13.157Z,-89.00
2023-04-28T00:28:18.321Z,-89.00
2023-04-28T00:29:14.474Z,-90.00
2023-04-28T00:30:15.114Z,-88.00
2023-04-28T00:31:15.724Z,-86.00
2023-04-28T00:32:15.877Z,-88.00
2023-04-28T00:33:16.512Z,-88.00
2023-04-28T00:34:17.425Z,-87.00
2023-04-28T00:35:17.773Z,-87.00
2023-04-28T00:36:25.379Z,-87.00
2023-04-28T00:37:19.031Z,-87.00
2023-04-28T00:37:28.637Z,-87.00
2023-04-28T00:38:29.222Z,-87.00
2023-04-28T00:39:29.906Z,-86.00
2023-04-28T00:40:31.396Z,-86.00
2023-04-28T00:41:30.887Z,-86.00
2023-04-28T00:42:31.438Z,-87.00
2023-04-28T00:43:31.972Z,-86.00
2023-04-28T00:44:32.666Z,-86.00
2023-04-28T00:45:33.740Z,-87.00
2023-04-28T00:46:34.245Z,-87.00
2023-04-28T00:47:34.928Z,-86.00
2023-04-28T00:47:43.653Z,-86.00
2023-04-28T00:48:44.113Z,-86.00
2023-04-28T00:49:44.212Z,-86.00
2023-04-28T00:50:44.689Z,-86.00
2023-04-28T00:51:45.221Z,-86.00
2023-04-28T00:52:45.823Z,-86.00
2023-04-28T00:53:46.360Z,-85.00
2023-04-28T00:54:46.936Z,-86.00
2023-04-28T00:55:47.537Z,-86.00
2023-04-28T00:56:48.393Z,-86.00
2023-04-28T00:57:49.108Z,-87.00
2023-04-28T00:57:57.788Z,-87.00
2023-04-28T00:58:58.437Z,-87.00
2023-04-28T00:59:59.013Z,-87.00
2023-04-28T01:00:59.629Z,-86.00
2023-04-28T01:02:00.272Z,-87.00
2023-04-28T01:03:01.366Z,-87.00
2023-04-28T01:04:01.927Z,-87.00
2023-04-28T01:05:02.490Z,-88.00
2023-04-28T01:06:03.011Z,-87.00
2023-04-28T01:07:03.621Z,-87.00
2023-04-28T01:08:04.450Z,-87.00
2023-04-28T01:09:05.142Z,-87.00
2023-04-28T01:09:13.762Z,-87.00
2023-04-28T01:10:14.680Z,-87.00
2023-04-28T01:11:15.433Z,-87.00
2023-04-28T01:12:16.018Z,-87.00
2023-04-28T01:13:16.375Z,-87.00
2023-04-28T01:14:17.277Z,-88.00
2023-04-28T01:15:17.261Z,-87.00
2023-04-28T01:16:17.892Z,-88.00
2023-04-28T01:17:18.696Z,-87.00
2023-04-28T01:18:18.779Z,-88.00
2023-04-28T01:19:19.456Z,-87.00
2023-04-28T01:19:28.100Z,-87.00
2023-04-28T01:20:28.696Z,-87.00
2023-04-28T01:21:29.274Z,-87.00
2023-04-28T01:22:29.450Z,-87.00
2023-04-28T01:23:30.094Z,-87.00
2023-04-28T01:24:30.718Z,-87.00
2023-04-28T01:25:31.175Z,-87.00
2023-04-28T01:26:31.687Z,-87.00
2023-04-28T01:27:32.364Z,-87.00
2023-04-28T01:28:32.959Z,-87.00
2023-04-28T01:29:33.586Z,-87.00
2023-04-28T01:30:34.111Z,-87.00
2023-04-28T01:30:42.717Z,-87.00
2023-04-28T01:31:43.611Z,-88.00
2023-04-28T01:32:44.487Z,-88.00
2023-04-28T01:33:45.105Z,-87.00
2023-04-28T01:34:45.730Z,-88.00
2023-04-28T01:35:46.306Z,-87.00
2023-04-28T01:36:46.928Z,-87.00
2023-04-28T01:37:47.493Z,-86.00
2023-04-28T01:38:48.475Z,-88.00
2023-04-28T01:39:49.074Z,-87.00
2023-04-28T01:40:49.188Z,-87.00
2023-04-28T01:41:00.324Z,-88.00
2023-04-28T01:42:00.900Z,-87.00
2023-04-28T01:43:01.494Z,-87.00
2023-04-28T01:44:02.102Z,-86.00
2023-04-28T01:45:02.841Z,-88.00
2023-04-28T01:46:04.376Z,-89.00
2023-04-28T01:47:03.901Z,-87.00
2023-04-28T01:48:04.538Z,-87.00
2023-04-28T01:49:05.056Z,-88.00
2023-04-28T01:50:05.698Z,-89.00
2023-04-28T01:51:06.239Z,-87.00
2023-04-28T01:52:06.806Z,-88.00
2023-04-28T01:52:15.417Z,-87.00
2023-04-28T01:53:16.238Z,-87.00
2023-04-28T01:54:17.084Z,-87.00
2023-04-28T01:55:17.523Z,-86.00
2023-04-28T01:56:18.108Z,-87.00
2023-04-28T01:57:19.534Z,-87.00
2023-04-28T01:58:19.160Z,-87.00
2023-04-28T01:59:19.198Z,-87.00
2023-04-28T02:00:19.755Z,-87.00
2023-04-28T02:01:20.399Z,-87.00
2023-04-28T02:02:20.940Z,-89.00
2023-04-28T02:03:21.773Z,-87.00
2023-04-28T02:03:30.219Z,-86.00
2023-04-28T02:04:31.078Z,-88.00
2023-04-28T02:05:31.619Z,-88.00
2023-04-28T02:06:32.197Z,-88.00
2023-04-28T02:07:32.459Z,-85.00
2023-04-28T02:08:32.968Z,-87.00
2023-04-28T02:09:33.535Z,-88.00
2023-04-28T02:10:34.145Z,-88.00
2023-04-28T02:11:34.815Z,-87.00
2023-04-28T02:12:35.375Z,-89.00
2023-04-28T02:13:36.948Z,-87.00
2023-04-28T02:14:36.562Z,-89.00
2023-04-28T02:14:45.263Z,-86.00
2023-04-28T02:15:45.864Z,-89.00
2023-04-28T02:16:46.558Z,-89.00
2023-04-28T02:17:47.188Z,-90.00
2023-04-28T02:18:47.727Z,-89.00
2023-04-28T02:19:48.309Z,-89.00
2023-04-28T02:20:48.921Z,-89.00
2023-04-28T02:21:49.491Z,-89.00
2023-04-28T02:22:51.096Z,-91.00
2023-04-28T02:23:50.728Z,-89.00
2023-04-28T02:24:51.302Z,-88.00
2023-04-28T02:25:00.549Z,-89.00
2023-04-28T02:26:01.536Z,-89.00
2023-04-28T02:27:02.081Z,-89.00
2023-04-28T02:28:03.039Z,-88.00
2023-04-28T02:29:03.598Z,-89.00
2023-04-28T02:30:04.091Z,-90.00
2023-04-28T02:31:04.918Z,-89.00
2023-04-28T02:32:05.476Z,-89.00
2023-04-28T02:33:06.134Z,-89.00
2023-04-28T02:34:06.555Z,-90.00
2023-04-28T02:35:07.281Z,-89.00
2023-04-28T02:36:07.917Z,-90.00
2023-04-28T02:36:23.748Z,-89.00
2023-04-28T02:37:24.471Z,-88.00
2023-04-28T02:38:25.222Z,-88.00
2023-04-28T02:39:25.766Z,-90.00
2023-04-28T02:40:26.384Z,-89.00
2023-04-28T02:41:26.960Z,-90.00
2023-04-28T02:42:27.860Z,-90.00
2023-04-28T02:43:28.765Z,-89.00
2023-04-28T02:44:29.373Z,-89.00
2023-04-28T02:45:31.018Z,-88.00
2023-04-28T02:46:31.676Z,-91.00
2023-04-28T02:46:43.865Z,-90.00
2023-04-28T02:47:44.108Z,-92.00
2023-04-28T02:48:44.552Z,-90.00
2023-04-28T02:49:45.168Z,-90.00
2023-04-28T02:50:45.699Z,-90.00
2023-04-28T02:51:46.377Z,-90.00
2023-04-28T02:52:48.970Z,-89.00
2023-04-28T02:53:46.940Z,-89.00
2023-04-28T02:54:47.428Z,-90.00
2023-04-28T02:55:48.039Z,-90.00
2023-04-28T02:56:48.656Z,-90.00
2023-04-28T02:57:49.206Z,-89.00
2023-04-28T02:57:57.808Z,-89.00
2023-04-28T02:58:59.403Z,-89.00
2023-04-28T02:59:58.958Z,-90.00
2023-04-28T03:00:59.940Z,-90.00
2023-04-28T03:02:00.663Z,-88.00
2023-04-28T03:03:01.337Z,-90.00
2023-04-28T03:04:02.285Z,-91.00
2023-04-28T03:05:03.003Z,-90.00
2023-04-28T03:06:03.446Z,-90.00
2023-04-28T03:07:04.253Z,-89.00
2023-04-28T03:08:04.909Z,-91.00
2023-04-28T03:09:05.650Z,-89.00
2023-04-28T03:09:14.276Z,-89.00
2023-04-28T03:10:14.946Z,-91.00
2023-04-28T03:11:15.715Z,-90.00
2023-04-28T03:12:16.405Z,-90.00
2023-04-28T03:13:17.223Z,-90.00
2023-04-28T03:14:17.958Z,-90.00
2023-04-28T03:15:18.252Z,-89.00
2023-04-28T03:16:19.185Z,-89.00
2023-04-28T03:17:19.862Z,-90.00
2023-04-28T03:18:20.082Z,-89.00
2023-04-28T03:19:20.626Z,-90.00
2023-04-28T03:20:21.217Z,-89.00
2023-04-28T03:20:30.328Z,-89.00
2023-04-28T03:21:30.957Z,-89.00
2023-04-28T03:22:31.686Z,-90.00
2023-04-28T03:23:32.297Z,-87.00
2023-04-28T03:24:32.835Z,-89.00
2023-04-28T03:25:33.466Z,-89.00
2023-04-28T03:26:34.081Z,-90.00
2023-04-28T03:27:34.782Z,-88.00
2023-04-28T03:28:35.320Z,-90.00
2023-04-28T03:29:35.924Z,-89.00
2023-04-28T03:30:36.483Z,-89.00
2023-04-28T03:31:37.122Z,-90.00
2023-04-28T03:31:45.763Z,-90.00
2023-04-28T03:32:46.433Z,-90.00
2023-04-28T03:33:47.329Z,-90.00
2023-04-28T03:34:47.865Z,-91.00
2023-04-28T03:35:48.548Z,-89.00
2023-04-28T03:36:48.610Z,-91.00
2023-04-28T03:37:49.729Z,-91.00
2023-04-28T03:38:49.669Z,-91.00
2023-04-28T03:39:50.332Z,-90.00
2023-04-28T03:40:50.866Z,-90.00
2023-04-28T03:41:52.641Z,-90.00
2023-04-28T03:42:03.368Z,-90.00
2023-04-28T03:43:04.881Z,-89.00
2023-04-28T03:44:04.466Z,-89.00
2023-04-28T03:45:05.199Z,-90.00
2023-04-28T03:46:05.725Z,-89.00
2023-04-28T03:47:06.417Z,-90.00
2023-04-28T03:48:07.044Z,-89.00
2023-04-28T03:49:07.578Z,-90.00
2023-04-28T03:50:08.373Z,-89.00
2023-04-28T03:51:08.684Z,-90.00
2023-04-28T03:52:10.406Z,-91.00
2023-04-28T03:52:19.094Z,-90.00
2023-04-28T03:53:19.748Z,-91.00
2023-04-28T03:54:20.278Z,-91.00
2023-04-28T03:55:20.786Z,-90.00
2023-04-28T03:56:21.411Z,-90.00
2023-04-28T03:57:22.258Z,-92.00
2023-04-28T03:58:23.097Z,-91.00
2023-04-28T03:59:23.910Z,-91.00
2023-04-28T04:00:24.626Z,-90.00
2023-04-28T04:01:26.280Z,-91.00
2023-04-28T04:02:25.635Z,-91.00
2023-04-28T04:02:37.881Z,-90.00
2023-04-28T04:03:38.669Z,-90.00
2023-04-28T04:04:39.217Z,-90.00
2023-04-28T04:05:40.244Z,-91.00
2023-04-28T04:06:40.808Z,-90.00
2023-04-28T04:07:41.115Z,-90.00
2023-04-28T04:08:41.935Z,-90.00
2023-04-28T04:09:42.675Z,-90.00
2023-04-28T04:10:43.305Z,-88.00
2023-04-28T04:11:44.074Z,-90.00
2023-04-28T04:12:44.887Z,-90.00
2023-04-28T04:13:45.758Z,-90.00
2023-04-28T04:13:54.362Z,-90.00
2023-04-28T04:14:55.087Z,-90.00
2023-04-28T04:15:55.990Z,-90.00
2023-04-28T04:16:56.645Z,-90.00
2023-04-28T04:17:57.311Z,-90.00
2023-04-28T04:18:58.096Z,-90.00
2023-04-28T04:19:59.193Z,-90.00
2023-04-28T04:20:58.892Z,-90.00
2023-04-28T04:21:59.618Z,-91.00
2023-04-28T04:23:00.177Z,-90.00
2023-04-28T04:24:01.117Z,-90.00
2023-04-28T04:25:01.797Z,-90.00
2023-04-28T04:25:11.639Z,-89.00
2023-04-28T04:26:12.335Z,-90.00
2023-04-28T04:27:13.201Z,-89.00
2023-04-28T04:28:13.976Z,-89.00
2023-04-28T04:29:14.162Z,-90.00
2023-04-28T04:30:15.022Z,-90.00
2023-04-28T04:31:15.933Z,-90.00
2023-04-28T04:32:16.740Z,-91.00
2023-04-28T04:33:17.605Z,-90.00
2023-04-28T04:34:18.511Z,-91.00
2023-04-28T04:35:18.331Z,-90.00
2023-04-28T04:36:18.431Z,-90.00
2023-04-28T04:37:18.899Z,-90.00
2023-04-28T04:37:27.513Z,-91.00
2023-04-28T04:38:27.883Z,-91.00
2023-04-28T04:39:29.026Z,-90.00
2023-04-28T04:40:28.828Z,-91.00
2023-04-28T04:41:28.865Z,-91.00
2023-04-28T04:42:29.658Z,-92.00
2023-04-28T04:43:30.354Z,-91.00
2023-04-28T04:44:30.488Z,-91.00
2023-04-28T04:45:31.113Z,-92.00
2023-04-28T04:46:31.962Z,-91.00
2023-04-28T04:47:32.650Z,-91.00
2023-04-28T04:48:33.429Z,-92.00
2023-04-28T04:48:44.628Z,-91.00
2023-04-28T04:49:45.035Z,-91.00
2023-04-28T04:50:45.619Z,-91.00
2023-04-28T04:51:46.082Z,-91.00
2023-04-28T04:52:46.307Z,-91.00
2023-04-28T04:53:46.879Z,-91.00
2023-04-28T04:54:47.563Z,-91.00
2023-04-28T04:55:47.969Z,-90.00
2023-04-28T04:56:49.551Z,-91.00
2023-04-28T04:57:49.273Z,-91.00
2023-04-28T04:58:49.600Z,-92.00
2023-04-28T04:59:50.226Z,-91.00
2023-04-28T05:00:01.957Z,-92.00
2023-04-28T05:01:03.536Z,-93.00
2023-04-28T05:02:03.154Z,-93.00
2023-04-28T05:03:04.234Z,-93.00
2023-04-28T05:04:04.255Z,-92.00
2023-04-28T05:05:16.740Z,-93.00
2023-04-28T05:06:04.957Z,-94.00
2023-04-28T05:07:05.227Z,-93.00
2023-04-28T05:08:06.025Z,-93.00
2023-04-28T05:09:06.951Z,-94.00
2023-04-28T05:10:07.111Z,-94.00
2023-04-28T05:11:07.838Z,-93.00
2023-04-28T05:12:08.662Z,-94.00
2023-04-28T05:13:09.552Z,-93.00
2023-04-28T05:13:29.552Z,-93.00
2023-04-28T05:14:30.327Z,-94.00
2023-04-28T05:15:31.077Z,-93.00
2023-04-28T05:16:31.833Z,-93.00
2023-04-28T05:17:32.492Z,-93.00
2023-04-28T05:18:33.186Z,-92.00
2023-04-28T05:19:33.232Z,-93.00
2023-04-28T05:20:34.008Z,-93.00
2023-04-28T05:21:34.086Z,-94.00
2023-04-28T05:22:34.951Z,-93.00
2023-04-28T05:23:35.244Z,-93.00
2023-04-28T05:24:35.956Z,-92.00
2023-04-28T05:25:59.869Z,-93.00
2023-04-28T05:26:59.427Z,-93.00
2023-04-28T05:28:00.046Z,-93.00
2023-04-28T05:29:00.827Z,-93.00
2023-04-28T05:30:01.726Z,-94.00
2023-04-28T05:31:01.981Z,-94.00
2023-04-28T05:32:02.596Z,-93.00
2023-04-28T05:33:02.746Z,-93.00
2023-04-28T05:34:03.623Z,-93.00
2023-04-28T05:35:04.458Z,-92.00
2023-04-28T05:36:05.673Z,-92.00
2023-04-28T05:37:05.432Z,-92.00
2023-04-28T05:37:14.118Z,-90.00
2023-04-28T05:38:14.484Z,-92.00
2023-04-28T05:39:16.013Z,-94.00
2023-04-28T05:40:15.716Z,-92.00
2023-04-28T05:41:16.334Z,-93.00
2023-04-28T05:42:17.318Z,-93.00
2023-04-28T05:43:17.658Z,-92.00
2023-04-28T05:44:18.516Z,-92.00
2023-04-28T05:45:18.669Z,-91.00
2023-04-28T05:46:30.142Z,-92.00
2023-04-28T05:47:20.836Z,-92.00
2023-04-28T05:48:20.455Z,-93.00
2023-04-28T05:49:21.033Z,-92.00
2023-04-28T05:49:29.730Z,-91.00
2023-04-28T05:50:29.932Z,-93.00
2023-04-28T05:51:30.546Z,-92.00
2023-04-28T05:52:31.294Z,-91.00
2023-04-28T05:53:32.033Z,-92.00
2023-04-28T05:54:32.806Z,-93.00
2023-04-28T05:55:33.437Z,-92.00
2023-04-28T05:56:34.000Z,-92.00
2023-04-28T05:57:45.774Z,-92.00
2023-04-28T05:58:35.470Z,-92.00
2023-04-28T05:59:35.514Z,-92.00
2023-04-28T05:59:49.644Z,-92.00
2023-04-28T06:00:48.652Z,-93.00
2023-04-28T06:01:49.118Z,-92.00
2023-04-28T06:02:49.284Z,-92.00
2023-04-28T06:03:49.752Z,-91.00
2023-04-28T06:04:50.255Z,-91.00
2023-04-28T06:05:50.685Z,-92.00
2023-04-28T06:06:51.300Z,-92.00
2023-04-28T06:07:53.711Z,-93.00
2023-04-28T06:08:52.477Z,-91.00
2023-04-28T06:09:52.904Z,-91.00
2023-04-28T06:10:53.660Z,-91.00
2023-04-28T06:11:54.274Z,-91.00
2023-04-28T06:12:07.388Z,-91.00
2023-04-28T06:13:08.246Z,-93.00
2023-04-28T06:14:08.975Z,-93.00
2023-04-28T06:15:09.088Z,-92.00
2023-04-28T06:16:09.771Z,-92.00
2023-04-28T06:17:10.117Z,-91.00
2023-04-28T06:18:10.984Z,-94.00
2023-04-28T06:19:11.492Z,-93.00
2023-04-28T06:20:11.735Z,-92.00
2023-04-28T06:21:12.485Z,-92.00
2023-04-28T06:22:12.905Z,-94.00
2023-04-28T06:23:13.316Z,-93.00
2023-04-28T06:23:23.014Z,-95.00
2023-04-28T06:24:23.959Z,-93.00
2023-04-28T06:25:24.588Z,-93.00
2023-04-28T06:26:25.208Z,-92.00
2023-04-28T06:27:25.448Z,-92.00
2023-04-28T06:28:25.495Z,-93.00
2023-04-28T06:29:25.634Z,-92.00
2023-04-28T06:30:26.354Z,-93.00
2023-04-28T06:31:26.589Z,-92.00
2023-04-28T06:32:27.535Z,-93.00
2023-04-28T06:33:27.513Z,-93.00
2023-04-28T06:34:30.128Z,-92.00
2023-04-28T06:34:43.382Z,-90.00
2023-04-28T06:35:44.457Z,-93.00
2023-04-28T06:36:44.386Z,-93.00
2023-04-28T06:37:45.113Z,-91.00
2023-04-28T06:38:46.719Z,-90.00
2023-04-28T06:39:46.389Z,-93.00
2023-04-28T06:40:47.292Z,-92.00
2023-04-28T06:41:48.030Z,-92.00
2023-04-28T06:42:48.848Z,-92.00
2023-04-28T06:43:49.411Z,-93.00
2023-04-28T06:44:50.130Z,-92.00
2023-04-28T06:45:02.056Z,-92.00
2023-04-28T06:46:02.664Z,-93.00
2023-04-28T06:47:02.846Z,-92.00
2023-04-28T06:48:03.710Z,-92.00
2023-04-28T06:49:04.304Z,-92.00
2023-04-28T06:50:05.105Z,-93.00
2023-04-28T06:51:06.008Z,-93.00
2023-04-28T06:52:06.284Z,-93.00
2023-04-28T06:53:07.009Z,-92.00
2023-04-28T06:54:07.439Z,-91.00
2023-04-28T06:55:07.527Z,-91.00
2023-04-28T06:56:09.819Z,-92.00
2023-04-28T06:56:20.574Z,-91.00
2023-04-28T06:57:20.308Z,-89.00
2023-04-28T06:58:20.985Z,-90.00
2023-04-28T06:59:21.513Z,-89.00
2023-04-28T07:00:22.193Z,-90.00
2023-04-28T07:01:22.466Z,-90.00
2023-04-28T07:02:22.668Z,-89.00
2023-04-28T07:03:22.611Z,-90.00
2023-04-28T07:04:23.553Z,-91.00
2023-04-28T07:05:23.647Z,-90.00
2023-04-28T07:06:24.265Z,-92.00
2023-04-28T07:07:25.069Z,-91.00
2023-04-28T07:08:25.108Z,-92.00
2023-04-28T07:08:38.233Z,-90.00
2023-04-28T07:09:38.682Z,-91.00
2023-04-28T07:11:01.949Z,-90.00
2023-04-28T07:12:02.391Z,-92.00
2023-04-28T07:13:03.191Z,-91.00
2023-04-28T07:14:03.825Z,-91.00
2023-04-28T07:15:04.684Z,-92.00
2023-04-28T07:16:04.992Z,-91.00
2023-04-28T07:17:05.011Z,-93.00
2023-04-28T07:18:05.126Z,-93.00
2023-04-28T07:19:06.119Z,-92.00
2023-04-28T07:20:05.969Z,-92.00
2023-04-28T07:21:06.901Z,-92.00
2023-04-28T07:22:07.732Z,-92.00
2023-04-28T07:22:20.060Z,-92.00
2023-04-28T07:23:20.944Z,-92.00
2023-04-28T07:24:21.263Z,-92.00
2023-04-28T07:25:21.677Z,-91.00
2023-04-28T07:26:22.060Z,-91.00
2023-04-28T07:27:22.569Z,-92.00
2023-04-28T07:28:22.976Z,-91.00
2023-04-28T07:29:23.180Z,-92.00
2023-04-28T07:30:27.807Z,-91.00
2023-04-28T07:31:24.390Z,-90.00
2023-04-28T07:32:24.501Z,-89.00
2023-04-28T07:33:25.254Z,-88.00
2023-04-28T07:34:26.096Z,-90.00
2023-04-28T07:35:26.814Z,-92.00
2023-04-28T07:36:27.613Z,-91.00
2023-04-28T07:37:28.342Z,-91.00
2023-04-28T07:37:40.018Z,-91.00
2023-04-28T07:38:40.908Z,-92.00
2023-04-28T07:39:41.225Z,-91.00
2023-04-28T07:40:41.367Z,-94.00
2023-04-28T07:41:41.535Z,-92.00
2023-04-28T07:42:41.697Z,-93.00
2023-04-28T07:43:42.487Z,-91.00
2023-04-28T07:44:42.888Z,-92.00
2023-04-28T07:45:43.711Z,-92.00
2023-04-28T07:46:44.339Z,-92.00
2023-04-28T07:47:47.320Z,-91.00
2023-04-28T07:48:45.475Z,-92.00
2023-04-28T07:48:58.947Z,-91.00
2023-04-28T07:49:59.068Z,-91.00
2023-04-28T07:50:59.594Z,-91.00
2023-04-28T07:51:59.610Z,-91.00
2023-04-28T07:53:00.431Z,-92.00
2023-04-28T07:54:02.644Z,-91.00
2023-04-28T07:55:03.117Z,-92.00
2023-04-28T07:56:03.987Z,-93.00
2023-04-28T07:57:03.720Z,-92.00
2023-04-28T07:58:04.174Z,-91.00
2023-04-28T07:59:05.003Z,-92.00
2023-04-28T08:00:05.836Z,-92.00
2023-04-28T08:01:06.190Z,-91.00
2023-04-28T08:02:07.664Z,-91.00
2023-04-28T08:03:10.336Z,-91.00
2023-04-28T08:04:09.289Z,-91.00
2023-04-28T08:04:22.713Z,-92.00
2023-04-28T08:05:22.190Z,-91.00
2023-04-28T08:06:22.006Z,-92.00
2023-04-28T08:07:22.877Z,-91.00
2023-04-28T08:08:23.713Z,-91.00
2023-04-28T08:09:24.523Z,-92.00
2023-04-28T08:10:24.597Z,-92.00
2023-04-28T08:11:25.304Z,-91.00
2023-04-28T08:12:26.126Z,-91.00
2023-04-28T08:13:26.297Z,-92.00
2023-04-28T08:14:27.975Z,-92.00
2023-04-28T08:15:28.039Z,-92.00
2023-04-28T08:16:28.517Z,-90.00
2023-04-28T08:17:30.551Z,-91.00
2023-04-28T08:18:29.810Z,-91.00
2023-04-28T08:18:41.530Z,-92.00
2023-04-28T08:19:41.555Z,-92.00
2023-04-28T08:20:42.298Z,-92.00
2023-04-28T08:21:43.237Z,-92.00
2023-04-28T08:22:43.412Z,-91.00
2023-04-28T08:23:43.885Z,-91.00
2023-04-28T08:24:44.038Z,-91.00
2023-04-28T08:25:44.813Z,-91.00
2023-04-28T08:26:45.061Z,-92.00
2023-04-28T08:27:45.198Z,-92.00
2023-04-28T08:28:46.021Z,-92.00
2023-04-28T08:29:46.638Z,-92.00
2023-04-28T08:30:46.779Z,-91.00
2023-04-28T08:30:58.862Z,-90.00
2023-04-28T08:31:59.677Z,-92.00
2023-04-28T08:33:00.182Z,-92.00
2023-04-28T08:34:00.921Z,-91.00
2023-04-28T08:35:01.739Z,-92.00
2023-04-28T08:36:02.435Z,-92.00
2023-04-28T08:37:03.005Z,-92.00
2023-04-28T08:38:03.991Z,-92.00
2023-04-28T08:39:04.328Z,-91.00
2023-04-28T08:40:04.857Z,-92.00
2023-04-28T08:41:05.011Z,-92.00
2023-04-28T08:42:05.666Z,-92.00
2023-04-28T08:42:17.287Z,-92.00
2023-04-28T08:43:21.051Z,-92.00
2023-04-28T08:44:18.855Z,-92.00
2023-04-28T08:45:19.183Z,-91.00
2023-04-28T08:46:19.256Z,-91.00
2023-04-28T08:47:19.950Z,-91.00
2023-04-28T08:48:20.758Z,-91.00
2023-04-28T08:49:20.947Z,-91.00
2023-04-28T08:50:21.596Z,-90.00
2023-04-28T08:52:00.858Z,-91.00
2023-04-28T08:53:00.974Z,-91.00
2023-04-28T08:55:01.878Z,-89.00
2023-04-28T08:56:03.099Z,-92.00
2023-04-28T08:57:02.986Z,-90.00
2023-04-28T08:58:03.815Z,-91.00
2023-04-28T08:59:04.464Z,-92.00
2023-04-28T09:00:04.705Z,-93.00
2023-04-28T09:01:05.537Z,-94.00
2023-04-28T09:02:05.510Z,-93.00
2023-04-28T09:03:06.120Z,-94.00
2023-04-28T09:03:23.284Z,-93.00
2023-04-28T09:04:23.654Z,-90.00
2023-04-28T09:05:24.446Z,-90.00
2023-04-28T09:06:24.948Z,-91.00
2023-04-28T09:07:25.164Z,-92.00
2023-04-28T09:08:25.735Z,-93.00
2023-04-28T09:09:26.650Z,-92.00
2023-04-28T09:10:27.624Z,-91.00
2023-04-28T09:11:27.916Z,-91.00
2023-04-28T09:12:29.133Z,-91.00
2023-04-28T09:13:29.021Z,-91.00
2023-04-28T09:13:37.715Z,-87.00
2023-04-28T09:14:37.857Z,-91.00
2023-04-28T09:15:38.850Z,-91.00
2023-04-28T09:16:39.061Z,-92.00
2023-04-28T09:17:39.264Z,-90.00
2023-04-28T09:18:39.726Z,-89.00
2023-04-28T09:19:40.202Z,-90.00
2023-04-28T09:20:40.744Z,-88.00
2023-04-28T09:21:41.376Z,-91.00
2023-04-28T09:22:42.331Z,-89.00
2023-04-28T09:23:42.793Z,-89.00
2023-04-28T09:23:58.266Z,-88.00
2023-04-28T09:24:59.225Z,-89.00
2023-04-28T09:25:59.387Z,-89.00
2023-04-28T09:27:01.681Z,-87.00
2023-04-28T09:28:02.829Z,-88.00
2023-04-28T09:29:01.262Z,-88.00
2023-04-28T09:30:01.527Z,-87.00
2023-04-28T09:31:02.452Z,-88.00
2023-04-28T09:32:02.619Z,-87.00
2023-04-28T09:33:03.643Z,-88.00
2023-04-28T09:34:03.894Z,-89.00
2023-04-28T09:35:04.119Z,-89.00
2023-04-28T09:36:05.021Z,-92.00
2023-04-28T09:37:05.131Z,-86.00
2023-04-28T09:37:14.034Z,-88.00
2023-04-28T09:38:14.871Z,-86.00
2023-04-28T09:39:16.819Z,-92.00
2023-04-28T09:40:15.902Z,-88.00
2023-04-28T09:41:15.994Z,-89.00
2023-04-28T09:42:16.846Z,-88.00
2023-04-28T09:43:21.965Z,-88.00
2023-04-28T09:44:18.443Z,-89.00
2023-04-28T09:45:24.844Z,-88.00
2023-04-28T09:46:19.096Z,-86.00
2023-04-28T09:47:19.954Z,-88.00
2023-04-28T09:48:20.176Z,-88.00
2023-04-28T09:48:30.275Z,-90.00
2023-04-28T09:49:31.033Z,-89.00
2023-04-28T09:50:31.737Z,-87.00
2023-04-28T09:51:32.575Z,-89.00
2023-04-28T09:52:33.284Z,-89.00
2023-04-28T09:53:33.934Z,-89.00
2023-04-28T09:54:34.493Z,-87.00
2023-04-28T09:55:35.037Z,-89.00
2023-04-28T09:56:36.009Z,-88.00
2023-04-28T09:57:36.644Z,-87.00
2023-04-28T09:58:37.322Z,-93.00
2023-04-28T09:58:49.045Z,-91.00
2023-04-28T09:59:49.043Z,-87.00
2023-04-28T10:00:49.752Z,-89.00
2023-04-28T10:01:49.908Z,-88.00
2023-04-28T10:02:49.952Z,-89.00
2023-04-28T10:03:50.705Z,-91.00
2023-04-28T10:04:51.450Z,-90.00
2023-04-28T10:05:51.889Z,-88.00
2023-04-28T10:06:52.054Z,-87.00
2023-04-28T10:07:52.747Z,-89.00
2023-04-28T10:08:52.946Z,-89.00
2023-04-28T10:09:53.619Z,-89.00
2023-04-28T10:10:02.736Z,-90.00
2023-04-28T10:11:03.378Z,-89.00
2023-04-28T10:12:05.336Z,-91.00
2023-04-28T10:13:05.170Z,-88.00
2023-04-28T10:14:05.919Z,-88.00
2023-04-28T10:15:06.628Z,-89.00
2023-04-28T10:16:07.294Z,-90.00
2023-04-28T10:17:08.258Z,-88.00
2023-04-28T10:18:09.016Z,-87.00
2023-04-28T10:19:09.853Z,-89.00
2023-04-28T10:20:10.452Z,-92.00
2023-04-28T10:21:11.238Z,-90.00
2023-04-28T10:21:23.342Z,-89.00
2023-04-28T10:22:23.893Z,-91.00
2023-04-28T10:23:24.076Z,-88.00
2023-04-28T10:24:24.939Z,-89.00
2023-04-28T10:25:25.932Z,-89.00
2023-04-28T10:26:26.840Z,-89.00
2023-04-28T10:27:27.465Z,-89.00
2023-04-28T10:28:28.083Z,-90.00
2023-04-28T10:29:28.129Z,-94.00
2023-04-28T10:30:29.956Z,-92.00
2023-04-28T10:31:29.655Z,-92.00
2023-04-28T10:31:38.247Z,-91.00
2023-04-28T10:32:38.368Z,-92.00
2023-04-28T10:33:39.109Z,-90.00
2023-04-28T10:34:39.216Z,-89.00
2023-04-28T10:35:39.865Z,-91.00
2023-04-28T10:36:40.460Z,-90.00
2023-04-28T10:37:41.658Z,-93.00
2023-04-28T10:38:41.310Z,-91.00
2023-04-28T10:39:41.527Z,-90.00
2023-04-28T10:40:42.124Z,-89.00
2023-04-28T10:41:43.718Z,-91.00
2023-04-28T10:42:43.092Z,-90.00
2023-04-28T10:42:51.869Z,-91.00
2023-04-28T10:43:52.143Z,-90.00
2023-04-28T10:44:52.897Z,-88.00
2023-04-28T10:45:56.483Z,-89.00
2023-04-28T10:46:54.384Z,-89.00
2023-04-28T10:47:55.251Z,-88.00
2023-04-28T10:48:55.563Z,-89.00
2023-04-28T10:49:56.448Z,-90.00
2023-04-28T10:50:57.181Z,-88.00
2023-04-28T10:51:57.836Z,-88.00
2023-04-28T10:52:59.119Z,-89.00
2023-04-28T10:53:59.019Z,-88.00
2023-04-28T10:54:07.686Z,-88.00
2023-04-28T10:55:19.371Z,-90.00
2023-04-28T10:56:08.785Z,-92.00
2023-04-28T10:57:09.531Z,-90.00
2023-04-28T10:58:10.053Z,-89.00
2023-04-28T10:59:10.718Z,-89.00
2023-04-28T11:00:11.564Z,-88.00
2023-04-28T11:01:12.233Z,-89.00
2023-04-28T11:02:13.107Z,-87.00
2023-04-28T11:03:14.112Z,-91.00
2023-04-28T11:04:14.842Z,-89.00
2023-04-28T11:05:15.658Z,-90.00
2023-04-28T11:05:26.840Z,-89.00
2023-04-28T11:06:27.527Z,-90.00
2023-04-28T11:07:28.374Z,-90.00
2023-04-28T11:08:29.161Z,-87.00
2023-04-28T11:09:29.321Z,-90.00
2023-04-28T11:10:29.378Z,-88.00
2023-04-28T11:11:30.085Z,-88.00
2023-04-28T11:12:30.753Z,-88.00
2023-04-28T11:13:31.493Z,-89.00
2023-04-28T11:14:32.136Z,-87.00
2023-04-28T11:15:32.981Z,-90.00
2023-04-28T11:16:33.730Z,-89.00
2023-04-28T11:16:43.985Z,-87.00
2023-04-28T11:17:44.323Z,-89.00
2023-04-28T11:18:44.702Z,-89.00
2023-04-28T11:19:45.361Z,-90.00
2023-04-28T11:20:45.907Z,-89.00
2023-04-28T11:21:46.884Z,-91.00
2023-04-28T11:22:47.728Z,-90.00
2023-04-28T11:23:48.466Z,-91.00
2023-04-28T11:24:48.532Z,-90.00
2023-04-28T11:25:48.975Z,-88.00
2023-04-28T11:26:49.072Z,-89.00
2023-04-28T11:27:49.845Z,-91.00
2023-04-28T11:27:58.527Z,-90.00
2023-04-28T11:28:59.468Z,-93.00
2023-04-28T11:29:58.841Z,-89.00
2023-04-28T11:30:59.450Z,-91.00
2023-04-28T11:32:00.291Z,-91.00
2023-04-28T11:33:00.819Z,-89.00
2023-04-28T11:34:01.547Z,-89.00
2023-04-28T11:35:02.404Z,-90.00
2023-04-28T11:36:03.170Z,-89.00
2023-04-28T11:37:03.364Z,-90.00
2023-04-28T11:38:03.403Z,-90.00
2023-04-28T11:39:03.502Z,-88.00
2023-04-28T11:40:04.180Z,-88.00
2023-04-28T11:41:04.214Z,-89.00
2023-04-28T11:41:12.819Z,-89.00
2023-04-28T11:42:12.977Z,-88.00
2023-04-28T11:43:13.722Z,-89.00
2023-04-28T11:44:14.721Z,-89.00
2023-04-28T11:45:15.323Z,-89.00
2023-04-28T11:46:15.442Z,-89.00
2023-04-28T11:47:15.907Z,-92.00
2023-04-28T11:48:16.252Z,-88.00